sensor_id;sensor_type;location;lat;lon;timestamp;P1;durP1;ratioP1;P2;durP2;ratioP2
46222;SDS011;31943;51.410;7.564;2023-05-10T00:01:14;1.65;;;1.10;;
46222;SDS011;31943;51.410;7.564;2023-05-10T00:03:47;3.05;;;1.02;;
46222;SDS011;31943;51.410;7.564;2023-05-10T00:06:21;2.47;;;1.00;;
46222;SDS011;31943;51.410;7.564;2023-05-10T00:09:07;1.35;;;0.90;;
46222;SDS011;31943;51.410;7.564;2023-05-10T00:11:33;1.45;;;1.00;;
46222;SDS011;31943;51.410;7.564;2023-05-10T00:14:02;2.38;;;1.00;;
46222;SDS011;31943;51.410;7.564;2023-05-10T00:16:33;2.78;;;0.80;;
46222;SDS011;31943;51.410;7.564;2023-05-10T00:18:59;1.27;;;1.00;;
46222;SDS011;31943;51.410;7.564;2023-05-10T00:21:25;1.55;;;1.05;;
46222;SDS011;31943;51.410;7.564;2023-05-10T00:23:56;0.82;;;0.80;;
46222;SDS011;31943;51.410;7.564;2023-05-10T00:26:24;2.47;;;0.85;;
46222;SDS011;31943;51.410;7.564;2023-05-10T00:28:52;1.40;;;1.20;;
46222;SDS011;31943;51.410;7.564;2023-05-10T00:31:22;1.80;;;1.08;;
46222;SDS011;31943;51.410;7.564;2023-05-10T00:33:50;0.93;;;0.90;;
46222;SDS011;31943;51.410;7.564;2023-05-10T00:36:15;0.90;;;0.80;;
46222;SDS011;31943;51.410;7.564;2023-05-10T00:38:41;1.10;;;0.90;;
46222;SDS011;31943;51.410;7.564;2023-05-10T00:41:07;1.48;;;0.70;;
46222;SDS011;31943;51.410;7.564;2023-05-10T00:43:35;1.58;;;0.90;;
46222;SDS011;31943;51.410;7.564;2023-05-10T00:46:03;2.83;;;0.90;;
46222;SDS011;31943;51.410;7.564;2023-05-10T00:48:41;1.40;;;1.10;;
46222;SDS011;31943;51.410;7.564;2023-05-10T00:51:09;1.50;;;1.23;;
46222;SDS011;31943;51.410;7.564;2023-05-10T00:53:35;1.10;;;1.00;;
46222;SDS011;31943;51.410;7.564;2023-05-10T00:56:01;4.40;;;1.20;;
46222;SDS011;31943;51.410;7.564;2023-05-10T00:58:27;2.13;;;1.23;;
46222;SDS011;31943;51.410;7.564;2023-05-10T01:00:56;1.52;;;1.10;;
46222;SDS011;31943;51.410;7.564;2023-05-10T01:03:22;1.63;;;1.20;;
46222;SDS011;31943;51.410;7.564;2023-05-10T01:05:49;1.98;;;1.40;;
46222;SDS011;31943;51.410;7.564;2023-05-10T01:08:21;1.30;;;1.20;;
46222;SDS011;31943;51.410;7.564;2023-05-10T01:10:51;1.10;;;0.95;;
46222;SDS011;31943;51.410;7.564;2023-05-10T01:13:18;1.55;;;1.35;;
46222;SDS011;31943;51.410;7.564;2023-05-10T01:15:56;1.35;;;1.00;;
46222;SDS011;31943;51.410;7.564;2023-05-10T01:18:25;3.13;;;1.30;;
46222;SDS011;31943;51.410;7.564;2023-05-10T01:20:56;2.33;;;1.60;;
46222;SDS011;31943;51.410;7.564;2023-05-10T01:27:02;2.13;;;1.85;;
46222;SDS011;31943;51.410;7.564;2023-05-10T01:30:02;2.47;;;2.25;;
46222;SDS011;31943;51.410;7.564;2023-05-10T01:32:40;2.40;;;2.20;;
46222;SDS011;31943;51.410;7.564;2023-05-10T01:35:13;3.38;;;2.50;;
46222;SDS011;31943;51.410;7.564;2023-05-10T01:37:45;2.50;;;2.25;;
46222;SDS011;31943;51.410;7.564;2023-05-10T01:40:17;2.67;;;2.30;;
46222;SDS011;31943;51.410;7.564;2023-05-10T01:42:56;3.60;;;2.92;;
46222;SDS011;31943;51.410;7.564;2023-05-10T01:45:31;3.53;;;2.95;;
46222;SDS011;31943;51.410;7.564;2023-05-10T01:48:17;3.13;;;2.83;;
46222;SDS011;31943;51.410;7.564;2023-05-10T01:50:46;3.45;;;3.15;;
46222;SDS011;31943;51.410;7.564;2023-05-10T01:53:17;5.03;;;3.88;;
46222;SDS011;31943;51.410;7.564;2023-05-10T01:55:48;3.80;;;3.35;;
46222;SDS011;31943;51.410;7.564;2023-05-10T01:58:19;3.65;;;3.20;;
46222;SDS011;31943;51.410;7.564;2023-05-10T02:00:50;5.07;;;3.85;;
46222;SDS011;31943;51.410;7.564;2023-05-10T02:03:25;3.70;;;3.23;;
46222;SDS011;31943;51.410;7.564;2023-05-10T02:05:53;5.53;;;3.90;;
46222;SDS011;31943;51.410;7.564;2023-05-10T02:08:23;4.30;;;3.15;;
46222;SDS011;31943;51.410;7.564;2023-05-10T02:10:54;5.18;;;3.60;;
46222;SDS011;31943;51.410;7.564;2023-05-10T02:13:22;4.90;;;3.40;;
46222;SDS011;31943;51.410;7.564;2023-05-10T02:15:49;3.35;;;3.03;;
46222;SDS011;31943;51.410;7.564;2023-05-10T02:18:16;3.63;;;3.30;;
46222;SDS011;31943;51.410;7.564;2023-05-10T02:20:48;3.25;;;2.90;;
46222;SDS011;31943;51.410;7.564;2023-05-10T02:25:42;4.53;;;3.30;;
46222;SDS011;31943;51.410;7.564;2023-05-10T02:28:09;4.75;;;3.80;;
46222;SDS011;31943;51.410;7.564;2023-05-10T02:30:42;4.93;;;4.18;;
46222;SDS011;31943;51.410;7.564;2023-05-10T02:33:09;4.07;;;3.75;;
46222;SDS011;31943;51.410;7.564;2023-05-10T02:35:36;4.43;;;4.03;;
46222;SDS011;31943;51.410;7.564;2023-05-10T02:38:09;5.30;;;3.92;;
46222;SDS011;31943;51.410;7.564;2023-05-10T02:40:40;4.03;;;3.65;;
46222;SDS011;31943;51.410;7.564;2023-05-10T02:43:09;4.35;;;3.95;;
46222;SDS011;31943;51.410;7.564;2023-05-10T02:45:37;4.80;;;4.30;;
46222;SDS011;31943;51.410;7.564;2023-05-10T02:48:06;4.95;;;4.45;;
46222;SDS011;31943;51.410;7.564;2023-05-10T02:50:33;4.93;;;4.28;;
46222;SDS011;31943;51.410;7.564;2023-05-10T02:53:06;4.93;;;4.53;;
46222;SDS011;31943;51.410;7.564;2023-05-10T02:55:40;5.15;;;4.53;;
46222;SDS011;31943;51.410;7.564;2023-05-10T02:58:10;5.32;;;4.60;;
46222;SDS011;31943;51.410;7.564;2023-05-10T03:00:37;5.03;;;4.63;;
46222;SDS011;31943;51.410;7.564;2023-05-10T03:03:03;4.35;;;3.95;;
46222;SDS011;31943;51.410;7.564;2023-05-10T03:05:29;5.13;;;4.72;;
46222;SDS011;31943;51.410;7.564;2023-05-10T03:07:55;4.80;;;4.40;;
46222;SDS011;31943;51.410;7.564;2023-05-10T03:10:41;4.70;;;4.30;;
46222;SDS011;31943;51.410;7.564;2023-05-10T03:13:22;4.45;;;4.05;;
46222;SDS011;31943;51.410;7.564;2023-05-10T03:16:12;5.80;;;5.15;;
46222;SDS011;31943;51.410;7.564;2023-05-10T03:18:48;6.78;;;5.85;;
46222;SDS011;31943;51.410;7.564;2023-05-10T03:21:20;7.05;;;5.25;;
46222;SDS011;31943;51.410;7.564;2023-05-10T03:24:10;6.30;;;5.70;;
46222;SDS011;31943;51.410;7.564;2023-05-10T03:26:53;7.45;;;5.85;;
46222;SDS011;31943;51.410;7.564;2023-05-10T03:29:22;6.57;;;6.00;;
46222;SDS011;31943;51.410;7.564;2023-05-10T03:31:49;6.78;;;6.07;;
46222;SDS011;31943;51.410;7.564;2023-05-10T03:34:15;7.60;;;6.90;;
46222;SDS011;31943;51.410;7.564;2023-05-10T03:36:41;7.95;;;7.15;;
46222;SDS011;31943;51.410;7.564;2023-05-10T03:39:18;8.25;;;7.45;;
46222;SDS011;31943;51.410;7.564;2023-05-10T03:41:48;7.05;;;6.35;;
46222;SDS011;31943;51.410;7.564;2023-05-10T03:44:14;8.88;;;7.97;;
46222;SDS011;31943;51.410;7.564;2023-05-10T03:46:58;8.30;;;7.50;;
46222;SDS011;31943;51.410;7.564;2023-05-10T03:49:24;9.27;;;8.30;;
46222;SDS011;31943;51.410;7.564;2023-05-10T03:51:49;8.77;;;7.53;;
46222;SDS011;31943;51.410;7.564;2023-05-10T03:54:17;8.00;;;7.05;;
46222;SDS011;31943;51.410;7.564;2023-05-10T03:56:42;7.82;;;6.80;;
46222;SDS011;31943;51.410;7.564;2023-05-10T03:59:08;7.63;;;6.70;;
46222;SDS011;31943;51.410;7.564;2023-05-10T04:01:34;8.45;;;7.63;;
46222;SDS011;31943;51.410;7.564;2023-05-10T04:04:01;8.75;;;7.70;;
46222;SDS011;31943;51.410;7.564;2023-05-10T04:06:26;7.80;;;7.00;;
46222;SDS011;31943;51.410;7.564;2023-05-10T04:08:52;8.55;;;7.28;;
46222;SDS011;31943;51.410;7.564;2023-05-10T04:11:20;7.18;;;6.45;;
46222;SDS011;31943;51.410;7.564;2023-05-10T04:13:48;8.35;;;7.38;;
46222;SDS011;31943;51.410;7.564;2023-05-10T04:16:14;8.00;;;6.60;;
46222;SDS011;31943;51.410;7.564;2023-05-10T04:18:40;7.40;;;6.63;;
46222;SDS011;31943;51.410;7.564;2023-05-10T04:21:10;8.60;;;7.32;;
46222;SDS011;31943;51.410;7.564;2023-05-10T04:23:36;7.33;;;6.57;;
46222;SDS011;31943;51.410;7.564;2023-05-10T04:26:06;8.27;;;6.90;;
46222;SDS011;31943;51.410;7.564;2023-05-10T04:28:35;7.20;;;6.50;;
46222;SDS011;31943;51.410;7.564;2023-05-10T04:31:01;8.15;;;7.35;;
46222;SDS011;31943;51.410;7.564;2023-05-10T04:33:32;8.18;;;7.35;;
46222;SDS011;31943;51.410;7.564;2023-05-10T04:35:58;7.90;;;6.63;;
46222;SDS011;31943;51.410;7.564;2023-05-10T04:38:26;7.05;;;6.35;;
46222;SDS011;31943;51.410;7.564;2023-05-10T04:41:10;9.43;;;6.85;;
46222;SDS011;31943;51.410;7.564;2023-05-10T04:43:57;7.72;;;6.78;;
46222;SDS011;31943;51.410;7.564;2023-05-10T04:46:24;7.50;;;6.68;;
46222;SDS011;31943;51.410;7.564;2023-05-10T04:48:56;7.07;;;6.38;;
46222;SDS011;31943;51.410;7.564;2023-05-10T04:51:23;7.00;;;6.30;;
46222;SDS011;31943;51.410;7.564;2023-05-10T04:53:49;7.35;;;6.60;;
46222;SDS011;31943;51.410;7.564;2023-05-10T04:56:15;6.65;;;6.00;;
46222;SDS011;31943;51.410;7.564;2023-05-10T04:58:40;7.15;;;6.18;;
46222;SDS011;31943;51.410;7.564;2023-05-10T05:01:08;7.30;;;5.90;;
46222;SDS011;31943;51.410;7.564;2023-05-10T05:03:55;6.43;;;5.82;;
46222;SDS011;31943;51.410;7.564;2023-05-10T05:06:21;8.52;;;6.18;;
46222;SDS011;31943;51.410;7.564;2023-05-10T05:08:47;7.88;;;6.93;;
46222;SDS011;31943;51.410;7.564;2023-05-10T05:11:12;9.00;;;7.47;;
46222;SDS011;31943;51.410;7.564;2023-05-10T05:13:38;9.35;;;8.43;;
46222;SDS011;31943;51.410;7.564;2023-05-10T05:16:04;11.52;;;9.88;;
46222;SDS011;31943;51.410;7.564;2023-05-10T05:18:32;11.68;;;9.82;;
46222;SDS011;31943;51.410;7.564;2023-05-10T05:20:59;10.52;;;8.38;;
46222;SDS011;31943;51.410;7.564;2023-05-10T05:23:26;10.13;;;9.10;;
46222;SDS011;31943;51.410;7.564;2023-05-10T05:25:52;11.43;;;9.80;;
46222;SDS011;31943;51.410;7.564;2023-05-10T05:28:18;13.43;;;11.98;;
46222;SDS011;31943;51.410;7.564;2023-05-10T05:30:45;12.52;;;10.88;;
46222;SDS011;31943;51.410;7.564;2023-05-10T05:33:12;13.90;;;12.35;;
46222;SDS011;31943;51.410;7.564;2023-05-10T05:35:40;14.05;;;12.55;;
46222;SDS011;31943;51.410;7.564;2023-05-10T05:38:06;15.35;;;13.55;;
46222;SDS011;31943;51.410;7.564;2023-05-10T05:40:33;15.93;;;14.15;;
46222;SDS011;31943;51.410;7.564;2023-05-10T05:42:59;15.68;;;13.57;;
46222;SDS011;31943;51.410;7.564;2023-05-10T05:45:25;17.85;;;14.98;;
46222;SDS011;31943;51.410;7.564;2023-05-10T05:47:50;20.48;;;15.63;;
46222;SDS011;31943;51.410;7.564;2023-05-10T05:50:19;20.15;;;15.55;;
46222;SDS011;31943;51.410;7.564;2023-05-10T05:53:03;21.77;;;16.48;;
46222;SDS011;31943;51.410;7.564;2023-05-10T05:55:29;20.58;;;16.85;;
46222;SDS011;31943;51.410;7.564;2023-05-10T05:57:56;18.35;;;15.60;;
46222;SDS011;31943;51.410;7.564;2023-05-10T06:00:22;17.45;;;15.13;;
46222;SDS011;31943;51.410;7.564;2023-05-10T06:02:48;23.05;;;17.42;;
46222;SDS011;31943;51.410;7.564;2023-05-10T06:05:14;19.23;;;15.75;;
46222;SDS011;31943;51.410;7.564;2023-05-10T06:07:41;18.58;;;15.25;;
46222;SDS011;31943;51.410;7.564;2023-05-10T06:10:09;19.15;;;16.08;;
46222;SDS011;31943;51.410;7.564;2023-05-10T06:12:35;18.65;;;14.98;;
46222;SDS011;31943;51.410;7.564;2023-05-10T06:15:01;18.35;;;15.70;;
46222;SDS011;31943;51.410;7.564;2023-05-10T06:17:27;21.65;;;17.42;;
46222;SDS011;31943;51.410;7.564;2023-05-10T06:19:54;20.95;;;17.15;;
46222;SDS011;31943;51.410;7.564;2023-05-10T06:22:20;19.15;;;15.20;;
46222;SDS011;31943;51.410;7.564;2023-05-10T06:24:46;19.27;;;16.13;;
46222;SDS011;31943;51.410;7.564;2023-05-10T06:27:13;23.75;;;18.58;;
46222;SDS011;31943;51.410;7.564;2023-05-10T06:29:40;19.90;;;17.02;;
46222;SDS011;31943;51.410;7.564;2023-05-10T06:32:07;20.92;;;17.35;;
46222;SDS011;31943;51.410;7.564;2023-05-10T06:34:32;22.17;;;17.83;;
46222;SDS011;31943;51.410;7.564;2023-05-10T06:36:59;22.83;;;18.80;;
46222;SDS011;31943;51.410;7.564;2023-05-10T06:39:27;25.58;;;19.17;;
46222;SDS011;31943;51.410;7.564;2023-05-10T06:41:52;27.17;;;20.63;;
46222;SDS011;31943;51.410;7.564;2023-05-10T06:44:21;25.38;;;19.48;;
46222;SDS011;31943;51.410;7.564;2023-05-10T06:46:49;26.48;;;19.90;;
46222;SDS011;31943;51.410;7.564;2023-05-10T06:49:14;27.60;;;20.35;;
46222;SDS011;31943;51.410;7.564;2023-05-10T06:51:41;27.25;;;21.15;;
46222;SDS011;31943;51.410;7.564;2023-05-10T06:54:09;28.10;;;22.25;;
46222;SDS011;31943;51.410;7.564;2023-05-10T06:56:37;25.10;;;19.35;;
46222;SDS011;31943;51.410;7.564;2023-05-10T06:59:02;27.25;;;20.98;;
46222;SDS011;31943;51.410;7.564;2023-05-10T07:01:31;26.73;;;21.20;;
46222;SDS011;31943;51.410;7.564;2023-05-10T07:03:59;29.00;;;21.10;;
46222;SDS011;31943;51.410;7.564;2023-05-10T07:06:27;28.52;;;21.45;;
46222;SDS011;31943;51.410;7.564;2023-05-10T07:08:53;29.25;;;20.83;;
46222;SDS011;31943;51.410;7.564;2023-05-10T07:11:18;29.35;;;21.25;;
46222;SDS011;31943;51.410;7.564;2023-05-10T07:13:45;25.48;;;19.80;;
46222;SDS011;31943;51.410;7.564;2023-05-10T07:16:11;23.15;;;19.58;;
46222;SDS011;31943;51.410;7.564;2023-05-10T07:18:38;21.13;;;17.88;;
46222;SDS011;31943;51.410;7.564;2023-05-10T07:21:04;22.52;;;17.63;;
46222;SDS011;31943;51.410;7.564;2023-05-10T07:23:29;21.38;;;17.23;;
46222;SDS011;31943;51.410;7.564;2023-05-10T07:25:58;24.17;;;19.08;;
46222;SDS011;31943;51.410;7.564;2023-05-10T07:28:23;25.55;;;18.92;;
46222;SDS011;31943;51.410;7.564;2023-05-10T07:30:49;25.83;;;18.02;;
46222;SDS011;31943;51.410;7.564;2023-05-10T07:33:15;24.70;;;17.80;;
46222;SDS011;31943;51.410;7.564;2023-05-10T07:35:42;21.08;;;16.63;;
46222;SDS011;31943;51.410;7.564;2023-05-10T07:38:09;20.92;;;15.70;;
46222;SDS011;31943;51.410;7.564;2023-05-10T07:40:35;22.10;;;15.20;;
46222;SDS011;31943;51.410;7.564;2023-05-10T07:43:02;21.67;;;17.23;;
46222;SDS011;31943;51.410;7.564;2023-05-10T07:45:29;19.95;;;15.88;;
46222;SDS011;31943;51.410;7.564;2023-05-10T07:47:57;19.65;;;15.45;;
46222;SDS011;31943;51.410;7.564;2023-05-10T07:50:23;18.67;;;15.23;;
46222;SDS011;31943;51.410;7.564;2023-05-10T07:52:50;19.25;;;15.13;;
46222;SDS011;31943;51.410;7.564;2023-05-10T07:55:17;18.45;;;15.27;;
46222;SDS011;31943;51.410;7.564;2023-05-10T07:57:46;18.77;;;15.00;;
46222;SDS011;31943;51.410;7.564;2023-05-10T08:00:12;18.55;;;14.45;;
46222;SDS011;31943;51.410;7.564;2023-05-10T08:02:41;18.00;;;13.63;;
46222;SDS011;31943;51.410;7.564;2023-05-10T08:05:07;19.23;;;13.57;;
46222;SDS011;31943;51.410;7.564;2023-05-10T08:07:33;17.42;;;14.05;;
46222;SDS011;31943;51.410;7.564;2023-05-10T08:10:01;19.10;;;14.10;;
46222;SDS011;31943;51.410;7.564;2023-05-10T08:12:28;16.50;;;14.30;;
46222;SDS011;31943;51.410;7.564;2023-05-10T08:14:55;15.70;;;13.27;;
46222;SDS011;31943;51.410;7.564;2023-05-10T08:17:21;17.73;;;12.20;;
46222;SDS011;31943;51.410;7.564;2023-05-10T08:19:48;16.05;;;12.82;;
46222;SDS011;31943;51.410;7.564;2023-05-10T08:22:14;17.42;;;13.15;;
46222;SDS011;31943;51.410;7.564;2023-05-10T08:24:39;14.80;;;12.88;;
46222;SDS011;31943;51.410;7.564;2023-05-10T08:27:07;14.20;;;11.73;;
46222;SDS011;31943;51.410;7.564;2023-05-10T08:29:33;13.68;;;11.52;;
46222;SDS011;31943;51.410;7.564;2023-05-10T08:31:59;15.73;;;12.10;;
46222;SDS011;31943;51.410;7.564;2023-05-10T08:34:25;14.73;;;11.18;;
46222;SDS011;31943;51.410;7.564;2023-05-10T08:36:51;13.30;;;10.68;;
46222;SDS011;31943;51.410;7.564;2023-05-10T08:39:17;12.00;;;10.30;;
46222;SDS011;31943;51.410;7.564;2023-05-10T08:41:43;10.68;;;8.90;;
46222;SDS011;31943;51.410;7.564;2023-05-10T08:44:14;13.82;;;9.93;;
46222;SDS011;31943;51.410;7.564;2023-05-10T08:46:40;11.75;;;10.05;;
46222;SDS011;31943;51.410;7.564;2023-05-10T08:49:10;11.37;;;9.63;;
46222;SDS011;31943;51.410;7.564;2023-05-10T08:51:43;11.07;;;9.82;;
46222;SDS011;31943;51.410;7.564;2023-05-10T08:54:12;12.43;;;9.32;;
46222;SDS011;31943;51.410;7.564;2023-05-10T08:56:39;11.05;;;9.38;;
46222;SDS011;31943;51.410;7.564;2023-05-10T08:59:04;12.45;;;8.93;;
46222;SDS011;31943;51.410;7.564;2023-05-10T09:01:32;10.35;;;8.98;;
46222;SDS011;31943;51.410;7.564;2023-05-10T09:04:00;9.52;;;7.82;;
46222;SDS011;31943;51.410;7.564;2023-05-10T09:06:26;9.40;;;8.27;;
46222;SDS011;31943;51.410;7.564;2023-05-10T09:08:54;10.55;;;8.30;;
46222;SDS011;31943;51.410;7.564;2023-05-10T09:11:20;11.27;;;7.88;;
46222;SDS011;31943;51.410;7.564;2023-05-10T09:13:49;10.25;;;8.75;;
46222;SDS011;31943;51.410;7.564;2023-05-10T09:16:17;9.40;;;8.00;;
46222;SDS011;31943;51.410;7.564;2023-05-10T09:18:45;11.40;;;7.63;;
46222;SDS011;31943;51.410;7.564;2023-05-10T09:21:14;8.35;;;6.55;;
46222;SDS011;31943;51.410;7.564;2023-05-10T09:23:43;7.90;;;6.28;;
46222;SDS011;31943;51.410;7.564;2023-05-10T09:26:12;8.02;;;6.53;;
46222;SDS011;31943;51.410;7.564;2023-05-10T09:28:49;8.65;;;6.70;;
46222;SDS011;31943;51.410;7.564;2023-05-10T09:31:16;8.95;;;6.72;;
46222;SDS011;31943;51.410;7.564;2023-05-10T09:33:45;7.85;;;6.88;;
46222;SDS011;31943;51.410;7.564;2023-05-10T09:36:11;6.80;;;5.95;;
46222;SDS011;31943;51.410;7.564;2023-05-10T09:38:46;9.13;;;6.18;;
46222;SDS011;31943;51.410;7.564;2023-05-10T09:41:16;9.23;;;6.63;;
46222;SDS011;31943;51.410;7.564;2023-05-10T09:43:42;12.02;;;7.35;;
46222;SDS011;31943;51.410;7.564;2023-05-10T09:46:08;8.55;;;6.65;;
46222;SDS011;31943;51.410;7.564;2023-05-10T09:48:37;9.20;;;6.63;;
46222;SDS011;31943;51.410;7.564;2023-05-10T09:51:09;10.43;;;6.68;;
46222;SDS011;31943;51.410;7.564;2023-05-10T09:53:36;10.80;;;7.50;;
46222;SDS011;31943;51.410;7.564;2023-05-10T09:56:02;8.70;;;7.07;;
46222;SDS011;31943;51.410;7.564;2023-05-10T09:58:28;9.85;;;7.88;;
46222;SDS011;31943;51.410;7.564;2023-05-10T10:00:54;10.63;;;6.97;;
46222;SDS011;31943;51.410;7.564;2023-05-10T10:03:20;8.50;;;6.70;;
46222;SDS011;31943;51.410;7.564;2023-05-10T10:05:46;7.85;;;5.82;;
46222;SDS011;31943;51.410;7.564;2023-05-10T10:08:15;7.82;;;5.80;;
46222;SDS011;31943;51.410;7.564;2023-05-10T10:10:41;5.88;;;5.00;;
46222;SDS011;31943;51.410;7.564;2023-05-10T10:13:07;6.60;;;5.22;;
46222;SDS011;31943;51.410;7.564;2023-05-10T10:15:34;7.93;;;6.43;;
46222;SDS011;31943;51.410;7.564;2023-05-10T10:18:00;5.70;;;4.60;;
46222;SDS011;31943;51.410;7.564;2023-05-10T10:20:26;7.82;;;5.32;;
46222;SDS011;31943;51.410;7.564;2023-05-10T10:22:53;6.28;;;4.47;;
46222;SDS011;31943;51.410;7.564;2023-05-10T10:25:20;7.03;;;4.72;;
46222;SDS011;31943;51.410;7.564;2023-05-10T10:27:49;6.78;;;4.68;;
46222;SDS011;31943;51.410;7.564;2023-05-10T10:30:28;6.32;;;4.93;;
46222;SDS011;31943;51.410;7.564;2023-05-10T10:33:09;6.88;;;4.68;;
46222;SDS011;31943;51.410;7.564;2023-05-10T10:35:50;6.47;;;5.65;;
46222;SDS011;31943;51.410;7.564;2023-05-10T10:38:18;7.60;;;5.65;;
46222;SDS011;31943;51.410;7.564;2023-05-10T10:40:51;7.43;;;5.40;;
46222;SDS011;31943;51.410;7.564;2023-05-10T10:43:27;10.55;;;5.35;;
46222;SDS011;31943;51.410;7.564;2023-05-10T10:46:09;9.07;;;5.70;;
46222;SDS011;31943;51.410;7.564;2023-05-10T10:48:36;7.93;;;4.60;;
46222;SDS011;31943;51.410;7.564;2023-05-10T10:51:02;8.13;;;5.90;;
46222;SDS011;31943;51.410;7.564;2023-05-10T10:53:28;9.20;;;6.30;;
46222;SDS011;31943;51.410;7.564;2023-05-10T10:56:06;9.40;;;6.22;;
46222;SDS011;31943;51.410;7.564;2023-05-10T10:58:33;7.95;;;6.05;;
46222;SDS011;31943;51.410;7.564;2023-05-10T11:01:09;10.05;;;6.40;;
46222;SDS011;31943;51.410;7.564;2023-05-10T11:03:36;9.30;;;5.95;;
46222;SDS011;31943;51.410;7.564;2023-05-10T11:06:02;7.90;;;6.28;;
46222;SDS011;31943;51.410;7.564;2023-05-10T11:08:31;10.43;;;7.97;;
46222;SDS011;31943;51.410;7.564;2023-05-10T11:11:04;11.38;;;7.32;;
46222;SDS011;31943;51.410;7.564;2023-05-10T11:13:32;15.35;;;11.23;;
46222;SDS011;31943;51.410;7.564;2023-05-10T11:15:59;15.65;;;10.90;;
46222;SDS011;31943;51.410;7.564;2023-05-10T11:18:36;20.40;;;13.25;;
46222;SDS011;31943;51.410;7.564;2023-05-10T11:21:01;19.88;;;14.93;;
46222;SDS011;31943;51.410;7.564;2023-05-10T11:23:31;21.40;;;14.88;;
46222;SDS011;31943;51.410;7.564;2023-05-10T11:25:59;19.33;;;14.18;;
46222;SDS011;31943;51.410;7.564;2023-05-10T11:28:28;20.30;;;15.32;;
46222;SDS011;31943;51.410;7.564;2023-05-10T11:30:54;21.20;;;13.93;;
46222;SDS011;31943;51.410;7.564;2023-05-10T11:33:22;16.27;;;13.88;;
46222;SDS011;31943;51.410;7.564;2023-05-10T11:35:49;19.67;;;14.38;;
46222;SDS011;31943;51.410;7.564;2023-05-10T11:38:15;21.48;;;14.05;;
46222;SDS011;31943;51.410;7.564;2023-05-10T11:40:40;18.55;;;13.73;;
46222;SDS011;31943;51.410;7.564;2023-05-10T11:43:08;17.85;;;13.43;;
46222;SDS011;31943;51.410;7.564;2023-05-10T11:48:17;10.88;;;9.07;;
46222;SDS011;31943;51.410;7.564;2023-05-10T11:50:43;15.63;;;9.05;;
46222;SDS011;31943;51.410;7.564;2023-05-10T11:53:09;8.95;;;8.05;;
46222;SDS011;31943;51.410;7.564;2023-05-10T11:55:35;11.55;;;8.10;;
46222;SDS011;31943;51.410;7.564;2023-05-10T11:58:01;9.65;;;8.40;;
46222;SDS011;31943;51.410;7.564;2023-05-10T12:00:27;13.13;;;8.77;;
46222;SDS011;31943;51.410;7.564;2023-05-10T12:02:56;12.18;;;8.10;;
46222;SDS011;31943;51.410;7.564;2023-05-10T12:05:23;10.60;;;8.95;;
46222;SDS011;31943;51.410;7.564;2023-05-10T12:07:49;11.30;;;9.80;;
46222;SDS011;31943;51.410;7.564;2023-05-10T12:10:15;13.18;;;10.05;;
46222;SDS011;31943;51.410;7.564;2023-05-10T12:12:42;11.80;;;10.32;;
46222;SDS011;31943;51.410;7.564;2023-05-10T12:15:12;12.75;;;10.68;;
46222;SDS011;31943;51.410;7.564;2023-05-10T12:17:43;12.43;;;10.55;;
46222;SDS011;31943;51.410;7.564;2023-05-10T12:20:16;12.20;;;11.00;;
46222;SDS011;31943;51.410;7.564;2023-05-10T12:22:47;13.40;;;11.43;;
46222;SDS011;31943;51.410;7.564;2023-05-10T12:25:15;10.52;;;9.20;;
46222;SDS011;31943;51.410;7.564;2023-05-10T12:27:47;9.77;;;8.40;;
46222;SDS011;31943;51.410;7.564;2023-05-10T12:30:21;11.10;;;9.15;;
46222;SDS011;31943;51.410;7.564;2023-05-10T12:32:47;10.55;;;9.05;;
46222;SDS011;31943;51.410;7.564;2023-05-10T12:35:16;13.43;;;8.43;;
46222;SDS011;31943;51.410;7.564;2023-05-10T12:37:44;10.70;;;9.45;;
46222;SDS011;31943;51.410;7.564;2023-05-10T12:40:10;11.05;;;8.25;;
46222;SDS011;31943;51.410;7.564;2023-05-10T12:42:37;10.95;;;8.25;;
46222;SDS011;31943;51.410;7.564;2023-05-10T12:45:04;9.38;;;7.43;;
46222;SDS011;31943;51.410;7.564;2023-05-10T12:47:33;10.73;;;7.80;;
46222;SDS011;31943;51.410;7.564;2023-05-10T12:50:01;10.40;;;7.93;;
46222;SDS011;31943;51.410;7.564;2023-05-10T12:52:29;9.13;;;6.97;;
46222;SDS011;31943;51.410;7.564;2023-05-10T12:54:57;9.77;;;7.55;;
46222;SDS011;31943;51.410;7.564;2023-05-10T12:57:23;10.07;;;8.15;;
46222;SDS011;31943;51.410;7.564;2023-05-10T12:59:50;10.75;;;7.63;;
46222;SDS011;31943;51.410;7.564;2023-05-10T13:02:15;10.65;;;8.15;;
46222;SDS011;31943;51.410;7.564;2023-05-10T13:04:41;12.85;;;8.75;;
46222;SDS011;31943;51.410;7.564;2023-05-10T13:07:07;11.95;;;9.85;;
46222;SDS011;31943;51.410;7.564;2023-05-10T13:09:35;10.93;;;9.00;;
46222;SDS011;31943;51.410;7.564;2023-05-10T13:12:01;10.43;;;9.07;;
46222;SDS011;31943;51.410;7.564;2023-05-10T13:14:28;10.05;;;9.02;;
46222;SDS011;31943;51.410;7.564;2023-05-10T13:16:55;11.00;;;8.85;;
46222;SDS011;31943;51.410;7.564;2023-05-10T13:19:23;11.90;;;8.73;;
46222;SDS011;31943;51.410;7.564;2023-05-10T13:21:48;10.45;;;8.85;;
46222;SDS011;31943;51.410;7.564;2023-05-10T13:24:15;10.13;;;8.60;;
46222;SDS011;31943;51.410;7.564;2023-05-10T13:26:43;10.38;;;9.15;;
46222;SDS011;31943;51.410;7.564;2023-05-10T13:29:09;10.25;;;8.40;;
46222;SDS011;31943;51.410;7.564;2023-05-10T13:31:34;10.52;;;8.13;;
46222;SDS011;31943;51.410;7.564;2023-05-10T13:34:01;9.50;;;6.95;;
46222;SDS011;31943;51.410;7.564;2023-05-10T13:36:27;13.77;;;7.75;;
46222;SDS011;31943;51.410;7.564;2023-05-10T13:38:53;11.00;;;8.30;;
46222;SDS011;31943;51.410;7.564;2023-05-10T13:41:20;9.15;;;6.95;;
46222;SDS011;31943;51.410;7.564;2023-05-10T13:43:47;7.38;;;6.47;;
46222;SDS011;31943;51.410;7.564;2023-05-10T13:46:13;9.38;;;6.75;;
46222;SDS011;31943;51.410;7.564;2023-05-10T13:48:40;7.88;;;6.13;;
46222;SDS011;31943;51.410;7.564;2023-05-10T13:51:07;13.45;;;6.70;;
46222;SDS011;31943;51.410;7.564;2023-05-10T13:53:33;8.93;;;6.65;;
46222;SDS011;31943;51.410;7.564;2023-05-10T13:55:58;6.63;;;5.53;;
46222;SDS011;31943;51.410;7.564;2023-05-10T13:58:24;8.38;;;5.93;;
46222;SDS011;31943;51.410;7.564;2023-05-10T14:00:51;9.68;;;6.70;;
46222;SDS011;31943;51.410;7.564;2023-05-10T14:03:18;7.95;;;6.95;;
46222;SDS011;31943;51.410;7.564;2023-05-10T14:05:45;9.98;;;7.07;;
46222;SDS011;31943;51.410;7.564;2023-05-10T14:08:11;8.40;;;7.47;;
46222;SDS011;31943;51.410;7.564;2023-05-10T14:10:36;10.68;;;6.97;;
46222;SDS011;31943;51.410;7.564;2023-05-10T14:13:02;8.90;;;7.30;;
46222;SDS011;31943;51.410;7.564;2023-05-10T14:15:28;10.48;;;7.95;;
46222;SDS011;31943;51.410;7.564;2023-05-10T14:17:57;11.80;;;8.40;;
46222;SDS011;31943;51.410;7.564;2023-05-10T14:20:23;7.95;;;6.97;;
46222;SDS011;31943;51.410;7.564;2023-05-10T14:22:48;10.32;;;7.68;;
46222;SDS011;31943;51.410;7.564;2023-05-10T14:25:15;9.32;;;7.90;;
46222;SDS011;31943;51.410;7.564;2023-05-10T14:27:41;10.85;;;7.72;;
46222;SDS011;31943;51.410;7.564;2023-05-10T14:30:07;11.20;;;8.35;;
46222;SDS011;31943;51.410;7.564;2023-05-10T14:32:33;8.80;;;7.90;;
46222;SDS011;31943;51.410;7.564;2023-05-10T14:35:01;9.02;;;7.85;;
46222;SDS011;31943;51.410;7.564;2023-05-10T14:37:27;9.05;;;7.20;;
46222;SDS011;31943;51.410;7.564;2023-05-10T14:39:52;10.27;;;7.57;;
46222;SDS011;31943;51.410;7.564;2023-05-10T14:42:18;7.72;;;6.93;;
46222;SDS011;31943;51.410;7.564;2023-05-10T14:44:45;9.90;;;7.00;;
46222;SDS011;31943;51.410;7.564;2023-05-10T14:47:11;10.32;;;7.75;;
46222;SDS011;31943;51.410;7.564;2023-05-10T14:49:36;9.55;;;6.70;;
46222;SDS011;31943;51.410;7.564;2023-05-10T14:52:04;8.32;;;6.68;;
46222;SDS011;31943;51.410;7.564;2023-05-10T14:54:29;10.85;;;7.50;;